Time;durP1;ratioP1;P1;durP2;ratioP2;P2;SDS_P1;SDS_P2;PMS_P1;PMS_P2;Temp;Humidity;BMP_temperature;BMP_pressure;BME280_temperature;BME280_humidity;BME280_pressure;Samples;Min_cycle;Max_cycle;Signal;HPM_P1;HPM_P2
2024/03/07 00:00:18;;;;;;;7.03;6.43;;;3.40;99.90;;;;;;5090009;28;20662;-60
2024/03/07 00:02:47;;;;;;;12.10;7.20;;;3.30;99.90;;;;;;5083723;28;20202;-60
2024/03/07 00:05:15;;;;;;;8.50;6.20;;;3.40;99.90;;;;;;5078684;28;21033;-60
2024/03/07 00:07:46;;;;;;;8.93;7.97;;;3.40;99.90;;;;;;5088159;28;20222;-60
2024/03/07 00:10:15;;;;;;;10.40;8.27;;;3.50;99.90;;;;;;5090887;28;20277;-60
2024/03/07 00:12:42;;;;;;;8.97;8.07;;;3.40;99.90;;;;;;5090360;28;20198;-60
2024/03/07 00:15:12;;;;;;;11.23;9.00;;;3.40;99.90;;;;;;5081274;28;20227;-61
2024/03/07 00:17:44;;;;;;;8.97;8.07;;;3.50;99.90;;;;;;5091835;28;20220;-60
2024/03/07 00:20:15;;;;;;;10.30;9.03;;;3.40;99.90;;;;;;5081484;28;20197;-60
2024/03/07 00:22:42;;;;;;;10.33;9.03;;;3.40;99.90;;;;;;5088825;28;20245;-60
2024/03/07 00:25:10;;;;;;;11.53;8.87;;;3.50;99.90;;;;;;5088484;28;20216;-60
2024/03/07 00:27:38;;;;;;;10.40;9.30;;;3.40;99.90;;;;;;5084481;28;20280;-60
2024/03/07 00:30:08;;;;;;;10.10;8.37;;;3.40;99.90;;;;;;5081251;28;20638;-60
2024/03/07 00:32:39;;;;;;;12.97;8.77;;;3.30;99.90;;;;;;5076040;28;20205;-60
2024/03/07 00:35:08;;;;;;;12.83;9.73;;;3.30;99.90;;;;;;5078252;28;20205;-60
2024/03/07 00:37:35;;;;;;;13.63;10.50;;;3.20;99.90;;;;;;5090339;28;20749;-60
2024/03/07 00:40:03;;;;;;;13.27;10.10;;;3.20;99.90;;;;;;5086659;28;20208;-61
2024/03/07 00:42:30;;;;;;;13.87;9.77;;;3.20;99.90;;;;;;5085477;28;20198;-61
2024/03/07 00:44:57;;;;;;;12.70;10.40;;;3.10;99.90;;;;;;5080073;28;20206;-61
2024/03/07 00:47:24;;;;;;;13.70;10.30;;;3.30;99.90;;;;;;5082220;28;20221;-60
2024/03/07 00:49:53;;;;;;;14.17;11.83;;;3.10;99.90;;;;;;5083383;28;20198;-60
2024/03/07 00:52:20;;;;;;;15.23;11.03;;;3.20;99.90;;;;;;5088268;28;20203;-60
2024/03/07 00:54:47;;;;;;;14.77;10.93;;;2.60;99.90;;;;;;5081061;28;20286;-60
2024/03/07 00:57:15;;;;;;;16.33;12.07;;;3.10;99.90;;;;;;5081236;28;20279;-60
2024/03/07 00:59:42;;;;;;;16.47;11.80;;;3.10;99.90;;;;;;5084158;28;20237;-60
2024/03/07 01:02:09;;;;;;;16.17;11.63;;;3.20;99.90;;;;;;5089776;28;20195;-60
2024/03/07 01:04:35;;;;;;;15.03;11.13;;;3.10;99.90;;;;;;5085850;28;20678;-60
2024/03/07 01:07:04;;;;;;;16.07;11.07;;;;;;;;;;5093806;28;20273;-60
2024/03/07 01:09:31;;;;;;;16.57;11.70;;;2.80;99.90;;;;;;5089773;28;20273;-60
2024/03/07 01:11:59;;;;;;;17.00;12.13;;;2.90;99.90;;;;;;5088361;28;20662;-60
2024/03/07 01:14:27;;;;;;;20.40;14.03;;;2.90;99.90;;;;;;5082770;28;20203;-60
2024/03/07 01:16:53;;;;;;;15.97;12.47;;;3.00;99.90;;;;;;5089268;28;20258;-60
2024/03/07 01:19:20;;;;;;;15.93;11.87;;;3.00;99.90;;;;;;5090248;28;20195;-60
2024/03/07 01:21:47;;;;;;;18.33;12.37;;;3.00;99.90;;;;;;5088637;28;20203;-60
2024/03/07 01:24:17;;;;;;;20.40;13.60;;;3.00;99.90;;;;;;5082201;28;20203;-60
2024/03/07 01:26:44;;;;;;;18.47;12.80;;;2.90;99.90;;;;;;5084570;28;20695;-60
2024/03/07 01:29:11;;;;;;;19.10;13.40;;;3.00;99.90;;;;;;5083707;28;20212;-60
2024/03/07 01:31:38;;;;;;;14.57;11.50;;;3.20;99.90;;;;;;5089737;28;20201;-60
2024/03/07 01:34:05;;;;;;;18.73;13.60;;;3.00;99.90;;;;;;5081797;28;20195;-60
2024/03/07 01:36:32;;;;;;;16.23;12.40;;;3.20;99.90;;;;;;5086376;28;20216;-60
2024/03/07 01:38:59;;;;;;;18.73;13.13;;;3.20;99.90;;;;;;5087261;28;20724;-60
2024/03/07 01:41:27;;;;;;;17.33;12.47;;;3.30;99.90;;;;;;5081899;28;20202;-60
2024/03/07 01:43:54;;;;;;;18.53;12.40;;;3.30;99.90;;;;;;5089794;28;20274;-60
2024/03/07 01:46:21;;;;;;;19.77;14.27;;;3.20;99.90;;;;;;5092648;28;20239;-60
2024/03/07 01:48:49;;;;;;;18.60;13.47;;;3.20;99.90;;;;;;5090613;28;20206;-60
2024/03/07 01:51:16;;;;;;;20.20;14.33;;;3.20;99.90;;;;;;5088116;28;20199;-60
2024/03/07 01:53:45;;;;;;;17.33;13.10;;;3.20;99.90;;;;;;5092951;28;20206;-60
2024/03/07 01:56:12;;;;;;;17.20;12.33;;;3.20;99.90;;;;;;5093847;28;20255;-60
2024/03/07 01:58:42;;;;;;;19.50;13.03;;;3.20;99.90;;;;;;5091248;28;20658;-61
2024/03/07 02:01:09;;;;;;;16.50;12.70;;;3.30;99.90;;;;;;5086717;28;20643;-60
2024/03/07 02:03:37;;;;;;;17.97;12.93;;;3.30;99.90;;;;;;5092895;28;20253;-60
2024/03/07 02:06:04;;;;;;;20.47;13.67;;;3.30;99.90;;;;;;5086637;28;20283;-60
2024/03/07 02:08:32;;;;;;;18.63;13.33;;;3.30;99.90;;;;;;5091729;28;20607;-60
2024/03/07 02:10:59;;;;;;;18.57;13.23;;;3.30;99.90;;;;;;5093238;28;20230;-60
2024/03/07 02:13:26;;;;;;;17.47;12.87;;;3.30;99.90;;;;;;5093526;28;20673;-60
2024/03/07 02:15:55;;;;;;;17.33;11.83;;;3.30;99.90;;;;;;5087131;28;20223;-61
2024/03/07 02:18:22;;;;;;;18.57;12.33;;;3.30;99.90;;;;;;5088151;28;20198;-60
2024/03/07 02:20:50;;;;;;;16.10;12.20;;;3.30;99.90;;;;;;5083980;28;20270;-61
2024/03/07 02:23:17;;;;;;;17.10;12.43;;;3.40;99.90;;;;;;5092455;28;20194;-60
2024/03/07 02:25:44;;;;;;;16.77;12.47;;;3.30;99.90;;;;;;5084849;28;20226;-60
2024/03/07 02:28:11;;;;;;;15.17;11.67;;;3.40;99.90;;;;;;5091153;28;20205;-60
2024/03/07 02:30:38;;;;;;;18.77;12.87;;;3.30;99.90;;;;;;5085914;28;20204;-61
2024/03/07 02:33:07;;;;;;;15.70;12.27;;;3.30;99.90;;;;;;5083949;28;20251;-60
2024/03/07 02:35:35;;;;;;;15.07;12.57;;;3.40;99.90;;;;;;5088432;28;20264;-60
2024/03/07 02:38:05;;;;;;;13.20;10.73;;;3.40;99.90;;;;;;5085434;28;20199;-60
2024/03/07 02:40:32;;;;;;;16.57;12.73;;;3.40;99.90;;;;;;5093524;28;20244;-60
2024/03/07 02:42:59;;;;;;;19.30;12.47;;;3.30;99.90;;;;;;5093711;28;20205;-60
2024/03/07 02:45:26;;;;;;;14.57;11.10;;;3.50;99.90;;;;;;5091261;28;20199;-60
2024/03/07 02:47:53;;;;;;;15.33;12.17;;;3.40;99.90;;;;;;5084257;28;20213;-60
2024/03/07 02:50:22;;;;;;;15.93;12.03;;;3.40;99.90;;;;;;5079193;28;20199;-60
2024/03/07 02:52:50;;;;;;;16.93;12.87;;;3.50;99.90;;;;;;5092618;28;20233;-60
2024/03/07 02:55:18;;;;;;;15.07;12.63;;;3.40;99.90;;;;;;5109954;22;20332;-59
2024/03/07 02:57:46;;;;;;;20.30;13.90;;;3.40;99.90;;;;;;5091725;28;20195;-58
2024/03/07 03:00:26;;;;;;;18.90;13.07;;;3.30;99.90;;;;;;5085651;28;20229;-59
2024/03/07 03:02:53;;;;;;;15.97;12.43;;;3.30;99.90;;;;;;5083396;28;20557;-58
2024/03/07 03:05:20;;;;;;;21.40;13.47;;;3.30;99.90;;;;;;5089701;28;20212;-56
2024/03/07 03:07:52;;;;;;;15.00;11.90;;;3.20;99.90;;;;;;5084732;28;20292;-57
2024/03/07 03:10:24;;;;;;;19.23;14.20;;;3.20;99.90;;;;;;5081684;28;20198;-57
2024/03/07 03:12:53;;;;;;;18.60;12.97;;;3.30;99.90;;;;;;5079838;28;20672;-56
2024/03/07 03:15:20;;;;;;;18.43;14.33;;;3.50;99.90;;;;;;5083215;28;20242;-57
2024/03/07 03:17:48;;;;;;;19.97;13.73;;;3.40;99.90;;;;;;5081431;28;20194;-56
2024/03/07 03:20:25;;;;;;;19.03;13.77;;;3.50;99.90;;;;;;5078508;28;20199;-57
2024/03/07 03:22:52;;;;;;;19.43;13.83;;;3.30;99.90;;;;;;5086273;28;20202;-57
2024/03/07 03:25:23;;;;;;;19.53;14.50;;;3.30;99.90;;;;;;5070792;28;20720;-57
2024/03/07 03:27:50;;;;;;;19.10;14.37;;;3.50;99.90;;;;;;5079302;28;20577;-57
2024/03/07 03:30:18;;;;;;;18.20;13.27;;;3.40;99.90;;;;;;5084086;28;20195;-57
2024/03/07 03:32:47;;;;;;;16.50;11.63;;;3.50;99.90;;;;;;5088269;28;20572;-57
2024/03/07 03:35:15;;;;;;;16.07;11.80;;;3.50;99.90;;;;;;5071529;28;20258;-57
2024/03/07 03:37:43;;;;;;;16.13;11.87;;;3.50;99.90;;;;;;5072349;28;20199;-57
2024/03/07 03:40:11;;;;;;;15.77;10.50;;;3.50;99.90;;;;;;5077603;28;20639;-57
2024/03/07 03:42:40;;;;;;;15.10;11.77;;;3.30;99.90;;;;;;5086122;28;20279;-56
2024/03/07 03:45:08;;;;;;;15.10;11.27;;;3.40;99.90;;;;;;5081035;28;20211;-57
2024/03/07 03:47:39;;;;;;;14.73;10.40;;;3.30;99.90;;;;;;5092150;28;20312;-56
2024/03/07 03:50:08;;;;;;;15.53;11.37;;;3.50;99.90;;;;;;5092420;28;20206;-57
2024/03/07 03:52:38;;;;;;;12.43;9.63;;;3.50;99.90;;;;;;5088731;28;20234;-57
2024/03/07 03:55:06;;;;;;;13.87;10.43;;;3.50;99.90;;;;;;5070931;28;20280;-57
2024/03/07 03:57:34;;;;;;;16.27;11.17;;;3.50;99.90;;;;;;5071915;28;20705;-57
2024/03/07 04:00:07;;;;;;;15.60;10.80;;;3.40;99.90;;;;;;5071848;28;20679;-57
2024/03/07 04:02:38;;;;;;;15.60;9.97;;;3.60;99.90;;;;;;5077999;28;20205;-56
2024/03/07 04:05:06;;;;;;;13.87;10.70;;;3.70;99.90;;;;;;5082353;28;20226;-57
2024/03/07 04:07:32;;;;;;;19.10;11.13;;;3.60;99.90;;;;;;5091654;28;20218;-57
2024/03/07 04:09:59;;;;;;;16.80;11.60;;;3.60;99.90;;;;;;5091923;28;20206;-57
2024/03/07 04:12:27;;;;;;;17.90;12.07;;;3.60;99.90;;;;;;5090532;28;20208;-56
2024/03/07 04:14:55;;;;;;;17.47;12.30;;;3.60;99.90;;;;;;5082527;28;20227;-57
2024/03/07 04:17:24;;;;;;;17.83;12.50;;;3.70;99.90;;;;;;5091795;28;20242;-57
2024/03/07 04:19:52;;;;;;;19.60;13.27;;;3.70;99.90;;;;;;5091778;28;20667;-57
2024/03/07 04:22:20;;;;;;;19.87;13.40;;;3.60;99.90;;;;;;5085959;28;20230;-57
2024/03/07 04:24:53;;;;;;;23.07;15.07;;;3.70;99.90;;;;;;5082405;28;20200;-56
2024/03/07 04:27:21;;;;;;;22.17;14.77;;;3.60;99.90;;;;;;5091865;28;20258;-56
2024/03/07 04:29:49;;;;;;;22.47;15.73;;;3.60;99.90;;;;;;5059773;28;20231;-57
2024/03/07 04:32:16;;;;;;;24.83;15.67;;;3.50;99.90;;;;;;5067803;28;20238;-57
2024/03/07 04:34:45;;;;;;;23.53;15.53;;;3.60;99.90;;;;;;5082699;28;20244;-55
2024/03/07 04:37:12;;;;;;;26.30;16.53;;;3.50;99.90;;;;;;5088483;28;20673;-56
2024/03/07 04:39:39;;;;;;;23.60;16.07;;;3.40;99.90;;;;;;5070409;28;20203;-57
2024/03/07 04:42:08;;;;;;;23.50;16.30;;;3.30;99.90;;;;;;5076411;28;20248;-57
2024/03/07 04:44:37;;;;;;;25.87;17.33;;;3.40;99.90;;;;;;5071114;28;20203;-57
2024/03/07 04:47:05;;;;;;;25.57;17.73;;;3.60;99.90;;;;;;5070382;28;20222;-57
2024/03/07 04:49:33;;;;;;;25.13;16.27;;;3.30;99.90;;;;;;5082699;28;20624;-59
2024/03/07 04:52:03;;;;;;;26.13;17.50;;;3.20;99.90;;;;;;5083455;28;20253;-59
2024/03/07 04:54:31;;;;;;;27.83;17.77;;;3.30;99.90;;;;;;5071370;28;20228;-59
2024/03/07 04:56:58;;;;;;;22.93;15.80;;;3.40;99.90;;;;;;5084272;28;20314;-59
2024/03/07 04:59:25;;;;;;;24.30;16.67;;;3.20;99.90;;;;;;5084109;28;20195;-59
2024/03/07 05:01:52;;;;;;;26.50;16.87;;;3.20;99.90;;;;;;5079003;28;20214;-59
2024/03/07 05:04:19;;;;;;;25.87;17.10;;;3.20;99.90;;;;;;5069282;28;20270;-58
2024/03/07 05:06:48;;;;;;;28.90;18.47;;;3.30;99.90;;;;;;5063866;28;20312;-59
2024/03/07 05:09:25;;;;;;;28.33;17.87;;;3.20;99.90;;;;;;5064544;28;20198;-58
2024/03/07 05:11:52;;;;;;;26.47;18.23;;;3.10;99.90;;;;;;5069770;28;20233;-58
2024/03/07 05:14:19;;;;;;;30.17;18.60;;;3.30;99.90;;;;;;5071188;28;20242;-58
2024/03/07 05:17:01;;;;;;;30.43;19.30;;;3.20;99.90;;;;;;5070454;28;20272;-59
2024/03/07 05:19:30;;;;;;;25.93;17.07;;;3.10;99.90;;;;;;5074922;28;20199;-59
2024/03/07 05:21:57;;;;;;;26.93;17.63;;;3.10;99.90;;;;;;5074597;28;20203;-59
2024/03/07 05:24:26;;;;;;;27.93;17.57;;;3.10;99.90;;;;;;5074723;28;20199;-59
2024/03/07 05:26:54;;;;;;;29.03;17.13;;;3.10;99.90;;;;;;5073505;28;20304;-58
2024/03/07 05:29:21;;;;;;;28.63;16.97;;;3.10;99.90;;;;;;5071903;28;20210;-59
2024/03/07 05:31:48;;;;;;;30.00;18.63;;;2.90;99.90;;;;;;5073001;28;20224;-59
2024/03/07 05:34:18;;;;;;;29.10;18.47;;;2.90;99.90;;;;;;5074168;28;20204;-59
2024/03/07 05:36:46;;;;;;;28.70;18.03;;;3.00;99.90;;;;;;5073596;28;20215;-58
2024/03/07 05:39:14;;;;;;;25.27;15.70;;;3.00;99.90;;;;;;5074242;28;20690;-59
2024/03/07 05:41:44;;;;;;;23.93;14.87;;;2.90;99.90;;;;;;5074114;28;20196;-59
2024/03/07 05:44:11;;;;;;;23.33;15.37;;;2.80;99.90;;;;;;5072348;28;20646;-59
2024/03/07 05:46:41;;;;;;;26.50;16.13;;;2.80;99.90;;;;;;5073453;28;20223;-59
2024/03/07 05:49:08;;;;;;;23.80;14.80;;;2.70;99.90;;;;;;5071657;28;20317;-56
2024/03/07 05:51:35;;;;;;;23.23;15.20;;;;;;;;;;5074106;28;20632;-56
2024/03/07 05:54:06;;;;;;;26.03;16.33;;;;;;;;;;5074026;28;20199;-56
2024/03/07 05:56:35;;;;;;;26.43;17.43;;;;;;;;;;5073098;28;20238;-57
2024/03/07 05:59:07;;;;;;;29.87;17.70;;;;;;;;;;5074050;28;20210;-57
2024/03/07 06:01:34;;;;;;;27.30;16.63;;;;;;;;;;5074019;28;20579;-57
2024/03/07 06:04:02;;;;;;;27.47;17.53;;;;;;;;;;5065621;28;20618;-57
2024/03/07 06:06:31;;;;;;;25.10;16.80;;;;;;;;;;5072724;28;20261;-56
2024/03/07 06:08:58;;;;;;;24.83;16.17;;;;;;;;;;5073742;28;20257;-56
2024/03/07 06:11:26;;;;;;;30.40;18.77;;;;;;;;;;5073600;28;20208;-56
2024/03/07 06:13:53;;;;;;;26.23;17.33;;;;;;;;;;5073726;28;20204;-56
2024/03/07 06:16:21;;;;;;;24.03;16.07;;;;;;;;;;5072778;28;20269;-57
2024/03/07 06:18:49;;;;;;;29.00;18.47;;;;;;;;;;5073603;28;20206;-57
2024/03/07 06:21:16;;;;;;;27.93;17.77;;;;;;;;;;5073374;28;20229;-57
2024/03/07 06:23:43;;;;;;;29.10;18.60;;;;;;;;;;5073677;28;20207;-56
2024/03/07 06:26:16;;;;;;;30.60;20.23;;;;;;;;;;5072782;28;20227;-55
2024/03/07 06:28:45;;;;;;;31.53;21.37;;;;;;;;;;5072516;28;20285;-57
2024/03/07 06:31:12;;;;;;;33.17;19.83;;;;;;;;;;5068535;28;20199;-57
2024/03/07 06:33:41;;;;;;;32.13;20.00;;;;;;;;;;5073223;28;20248;-56
2024/03/07 06:36:08;;;;;;;31.80;17.87;;;;;;;;;;5072324;28;20227;-56
2024/03/07 06:38:36;;;;;;;33.23;19.53;;;;;;;;;;5073148;28;20195;-56
2024/03/07 06:41:04;;;;;;;26.77;17.27;;;;;;;;;;5070897;28;20241;-56
2024/03/07 06:43:32;;;;;;;31.60;18.97;;;;;;;;;;5073282;28;20203;-56
2024/03/07 06:45:59;;;;;;;33.30;19.47;;;;;;;;;;5071970;28;20269;-56
2024/03/07 06:48:26;;;;;;;28.83;18.53;;;;;;;;;;5073035;28;20227;-56
2024/03/07 06:50:55;;;;;;;31.77;19.77;;;;;;;;;;5073078;28;20257;-55
2024/03/07 06:53:26;;;;;;;32.07;19.30;;;;;;;;;;5073082;28;20667;-56
2024/03/07 06:55:53;;;;;;;29.93;17.60;;;;;;;;;;5069644;28;20226;-56
2024/03/07 06:58:22;;;;;;;25.73;17.63;;;;;;;;;;5072683;28;20201;-57
2024/03/07 07:00:51;;;;;;;25.20;16.63;;;;;;;;;;5080535;28;20263;-56
2024/03/07 07:03:19;;;;;;;24.77;16.83;;;;;;;;;;5085693;28;20211;-57
2024/03/07 07:05:46;;;;;;;24.90;15.63;;;;;;;;;;5069930;28;20273;-56
2024/03/07 07:08:15;;;;;;;22.17;15.53;;;;;;;;;;5072287;28;20214;-57
2024/03/07 07:10:43;;;;;;;25.70;17.57;;;;;;;;;;5072183;28;20199;-57
2024/03/07 07:13:11;;;;;;;20.20;15.17;;;;;;;;;;5072597;28;20279;-57
2024/03/07 07:15:38;;;;;;;21.87;14.07;;;;;;;;;;5071428;28;20612;-56
2024/03/07 07:18:07;;;;;;;21.80;14.03;;;6.50;99.90;;;;;;5072453;28;20236;-56
2024/03/07 07:20:34;;;;;;;17.17;12.60;;;6.50;99.90;;;;;;5070502;28;20277;-57
2024/03/07 07:23:03;;;;;;;19.00;13.87;;;6.40;99.90;;;;;;5072011;28;20233;-56
2024/03/07 07:25:31;;;;;;;16.73;12.20;;;6.40;99.90;;;;;;5069515;28;20304;-57
2024/03/07 07:27:58;;;;;;;16.77;12.03;;;6.30;99.90;;;;;;5072074;28;20210;-57
2024/03/07 07:30:26;;;;;;;19.87;13.70;;;6.10;99.90;;;;;;5072199;28;20200;-56
2024/03/07 07:32:54;;;;;;;20.13;13.17;;;;;;;;;;5072189;28;20205;-56
2024/03/07 07:35:22;;;;;;;17.07;12.70;;;;;;;;;;5077584;28;20258;-56
2024/03/07 07:37:51;;;;;;;12.63;9.87;;;6.90;99.90;;;;;;5073778;28;20195;-57
2024/03/07 07:40:19;;;;;;;17.37;12.40;;;;;;;;;;5074530;28;20640;-56
2024/03/07 07:42:47;;;;;;;15.40;11.53;;;;;;;;;;5073377;28;20196;-56
2024/03/07 07:45:16;;;;;;;13.50;10.57;;;6.60;99.90;;;;;;5085065;28;20242;-56
2024/03/07 07:47:43;;;;;;;14.00;10.40;;;;;;;;;;5069603;28;20214;-56
2024/03/07 07:50:12;;;;;;;12.83;9.43;;;;;;;;;;5070156;28;20570;-56
2024/03/07 07:52:46;;;;;;;11.77;9.23;;;;;;;;;;5068244;28;20214;-57
2024/03/07 07:55:15;;;;;;;10.57;8.13;;;;;;;;;;5071144;28;20230;-56
2024/03/07 07:57:43;;;;;;;10.13;8.40;;;;;;;;;;5072261;28;20230;-56
2024/03/07 08:00:21;;;;;;;8.63;7.73;;;;;;;;;;5075747;28;20634;-56
2024/03/07 08:02:48;;;;;;;9.27;7.73;;;;;;;;;;5071776;28;20205;-56
2024/03/07 08:05:17;;;;;;;9.93;7.77;;;;;;;;;;5070846;28;20221;-56
2024/03/07 08:07:45;;;;;;;9.13;8.13;;;;;;;;;;5071435;28;20219;-56
2024/03/07 08:10:12;;;;;;;10.73;8.73;;;;;;;;;;5072026;28;20203;-56
2024/03/07 08:12:43;;;;;;;10.43;8.93;;;;;;;;;;5071440;28;20199;-56
2024/03/07 08:15:13;;;;;;;11.40;9.67;;;10.90;99.90;;;;;;5070889;28;20246;-57
2024/03/07 08:17:45;;;;;;;10.57;9.43;;;;;;;;;;5071399;28;20195;-56
2024/03/07 08:20:13;;;;;;;11.23;9.73;;;;;;;;;;5071470;28;20233;-57
2024/03/07 08:22:43;;;;;;;8.07;7.27;;;;;;;;;;5071403;28;20203;-56
2024/03/07 08:25:12;;;;;;;6.47;5.87;;;;;;;;;;5070982;28;20220;-57
2024/03/07 08:27:40;;;;;;;8.70;7.63;;;;;;;;;;5083915;28;20223;-56
2024/03/07 08:30:12;;;;;;;7.57;6.87;;;;;;;;;;5079139;28;20683;-56
2024/03/07 08:32:44;;;;;;;7.83;7.03;;;;;;;;;;5084436;28;20577;-57
2024/03/07 08:35:12;;;;;;;8.77;7.90;;;;;;;;;;5077457;28;20702;-56
2024/03/07 08:37:44;;;;;;;8.67;7.67;;;;;;;;;;5078486;28;20248;-56
2024/03/07 08:40:12;;;;;;;8.77;7.70;;;;;;;;;;5067531;28;20251;-56
2024/03/07 08:42:42;;;;;;;7.67;6.90;;;;;;;;;;5085123;28;20206;-56
2024/03/07 08:45:10;;;;;;;8.33;7.20;;;;;;;;;;5084513;28;20250;-56
2024/03/07 08:47:42;;;;;;;7.90;7.10;;;12.00;99.90;;;;;;5088667;28;20264;-57
2024/03/07 08:50:12;;;;;;;7.53;6.60;;;12.40;99.90;;;;;;5067615;28;20629;-56
2024/03/07 08:52:40;;;;;;;7.40;6.13;;;12.70;99.90;;;;;;5056219;28;20618;-56
2024/03/07 08:55:10;;;;;;;6.27;5.60;;;12.60;99.90;;;;;;5074436;28;20251;-57
2024/03/07 08:57:37;;;;;;;6.17;5.53;;;;;;;;;;5072695;28;20744;-55
2024/03/07 09:00:08;;;;;;;5.90;4.80;;;;;;;;;;5073041;28;20660;-56
2024/03/07 09:02:39;;;;;;;7.67;5.77;;;;;;;;;;5084085;28;20686;-57
2024/03/07 09:05:07;;;;;;;7.43;6.63;;;;;;;;;;5066111;28;20207;-57
2024/03/07 09:07:39;;;;;;;10.80;7.47;;;;;;;;;;5076963;28;20245;-56
2024/03/07 09:10:07;;;;;;;6.80;6.17;;;;;;;;;;5062744;28;20204;-56
2024/03/07 09:12:38;;;;;;;7.83;7.03;;;;;;;;;;5070248;28;20673;-56
2024/03/07 09:15:06;;;;;;;5.70;5.20;;;;;;;;;;5065605;28;20641;-56
2024/03/07 09:17:33;;;;;;;6.00;5.40;;;;;;;;;;5074823;28;20234;-56
2024/03/07 09:20:00;;;;;;;6.10;5.60;;;;;;;;;;5074308;28;20622;-56
2024/03/07 09:22:29;;;;;;;5.70;5.30;;;;;;;;;;5074596;28;20197;-56
2024/03/07 09:24:57;;;;;;;6.47;5.97;;;16.30;99.90;;;;;;5073332;28;20237;-56
2024/03/07 09:27:24;;;;;;;7.23;5.83;;;16.00;99.90;;;;;;5067010;28;20255;-57
2024/03/07 09:29:51;;;;;;;5.87;5.37;;;16.40;99.90;;;;;;5074702;28;20194;-56
2024/03/07 09:32:21;;;;;;;6.10;5.60;;;16.30;99.90;;;;;;5074518;28;20205;-57
2024/03/07 09:34:49;;;;;;;6.20;5.67;;;16.10;99.90;;;;;;5073043;28;20591;-56
2024/03/07 09:37:17;;;;;;;5.50;5.10;;;16.10;99.90;;;;;;5074254;28;20622;-56
2024/03/07 09:39:45;;;;;;;5.00;4.60;;;15.60;99.90;;;;;;5074030;28;20310;-56
2024/03/07 09:42:19;;;;;;;5.78;5.28;;;15.10;99.90;;;;;;5064423;28;20453;-60
2024/03/07 09:44:47;;;;;;;4.63;4.33;;;14.40;99.90;;;;;;5067863;28;20204;-61
2024/03/07 09:47:14;;;;;;;4.27;4.00;;;15.10;99.90;;;;;;5072211;28;20239;-61
2024/03/07 09:49:41;;;;;;;4.60;4.20;;;14.80;99.90;;;;;;5052140;28;20704;-61
2024/03/07 09:52:11;;;;;;;4.43;4.13;;;15.00;99.90;;;;;;5094103;22;20824;-63
2024/03/07 09:54:40;;;;;;;5.23;3.83;;;14.10;99.90;;;;;;5079844;28;20243;-62
2024/03/07 09:57:08;;;;;;;3.57;3.37;;;13.10;99.90;;;;;;5082638;28;20287;-62
2024/03/07 09:59:38;;;;;;;3.33;3.10;;;12.10;99.90;;;;;;5066501;28;20710;-63
2024/03/07 10:02:07;;;;;;;3.83;3.53;;;11.40;99.90;;;;;;5069184;28;20304;-62
2024/03/07 10:04:40;;;;;;;4.53;4.13;;;10.50;99.90;;;;;;5070828;28;20207;-64
2024/03/07 10:07:11;;;;;;;3.73;3.53;;;10.00;99.90;;;;;;5069240;28;20203;-63
2024/03/07 10:09:40;;;;;;;2.93;2.70;;;9.80;99.90;;;;;;5075583;28;20223;-64
2024/03/07 10:12:09;;;;;;;4.47;4.07;;;9.50;99.90;;;;;;5076570;28;20223;-64
2024/03/07 10:14:38;;;;;;;2.90;2.70;;;10.10;99.90;;;;;;5077325;28;20199;-63
2024/03/07 10:17:05;;;;;;;2.80;2.60;;;11.40;99.90;;;;;;5074445;28;20655;-64
2024/03/07 10:19:33;;;;;;;3.07;2.87;;;12.50;99.90;;;;;;5079095;28;20208;-63
2024/03/07 10:22:01;;;;;;;2.67;2.47;;;13.20;99.90;;;;;;5066866;28;20609;-63
2024/03/07 10:24:28;;;;;;;2.97;2.77;;;14.20;99.90;;;;;;5079257;28;20214;-63
2024/03/07 10:26:57;;;;;;;4.50;2.60;;;15.00;99.90;;;;;;5077363;28;20373;-64
2024/03/07 10:29:24;;;;;;;1.77;1.73;;;15.70;99.90;;;;;;5081247;28;20265;-63
2024/03/07 10:31:53;;;;;;;4.27;2.90;;;16.00;99.90;;;;;;5079802;28;20270;-64
2024/03/07 10:34:24;;;;;;;2.27;2.17;;;16.00;99.90;;;;;;5074749;28;20199;-63
2024/03/07 10:36:54;;;;;;;2.30;2.10;;;15.70;99.90;;;;;;5083140;28;20201;-64
2024/03/07 10:39:22;;;;;;;5.47;5.17;;;15.80;99.90;;;;;;5079333;28;20192;-64
2024/03/07 10:41:50;;;;;;;3.33;2.80;;;15.50;99.90;;;;;;5079749;28;20311;-64
2024/03/07 10:44:22;;;;;;;2.40;2.30;;;14.00;99.90;;;;;;5079043;28;20224;-64
2024/03/07 10:46:55;;;;;;;2.43;2.33;;;13.10;99.90;;;;;;5087097;28;20203;-65
2024/03/07 10:49:24;;;;;;;3.07;2.77;;;12.20;99.90;;;;;;5079424;28;20729;-65
2024/03/07 10:52:03;;;;;;;2.57;2.43;;;11.90;99.90;;;;;;5078794;28;20231;-65
2024/03/07 10:54:40;;;;;;;2.67;2.43;;;11.30;99.90;;;;;;5077664;28;20200;-65
2024/03/07 10:57:21;;;;;;;4.17;1.90;;;11.30;99.90;;;;;;5075623;28;20268;-64
2024/03/07 10:59:51;;;;;;;2.50;2.40;;;11.30;99.90;;;;;;5090244;28;20211;-64
2024/03/07 11:02:32;;;;;;;4.03;3.63;;;11.30;99.90;;;;;;5080062;28;20217;-65
2024/03/07 11:05:00;;;;;;;3.77;3.50;;;11.70;99.90;;;;;;5078207;28;20199;-65
2024/03/07 11:07:28;;;;;;;3.13;2.93;;;11.90;99.90;;;;;;5079538;28;20618;-65
2024/03/07 11:09:56;;;;;;;3.30;2.83;;;12.20;99.90;;;;;;5079307;28;20237;-65
2024/03/07 11:12:27;;;;;;;3.43;3.13;;;12.30;99.90;;;;;;5091168;28;20302;-65
2024/03/07 11:14:57;;;;;;;2.47;2.37;;;12.10;99.90;;;;;;5083963;28;20227;-64
2024/03/07 11:17:25;;;;;;;2.85;2.65;;;12.30;99.90;;;;;;5075462;28;20456;-62
2024/03/07 11:19:52;;;;;;;1.87;1.77;;;11.70;99.90;;;;;;5077266;28;20194;-66
2024/03/07 11:22:32;;;;;;;2.40;2.20;;;11.60;99.90;;;;;;5091748;28;20265;-66
2024/03/07 11:25:06;;;;;;;2.57;2.40;;;11.80;99.90;;;;;;5086092;28;20192;-66
2024/03/07 11:27:34;;;;;;;2.63;2.43;;;11.80;99.90;;;;;;5091750;28;20291;-66
2024/03/07 11:30:06;;;;;;;2.40;2.20;;;11.50;99.90;;;;;;5079697;28;20305;-66
2024/03/07 11:32:44;;;;;;;2.47;2.30;;;11.30;99.90;;;;;;5080301;28;20224;-65
2024/03/07 11:35:14;;;;;;;2.53;2.37;;;11.40;99.90;;;;;;5081751;28;20207;-65
2024/03/07 11:37:46;;;;;;;3.87;3.50;;;11.80;99.90;;;;;;5083783;28;20230;-63
2024/03/07 11:40:19;;;;;;;2.80;2.60;;;12.10;99.90;;;;;;5085098;28;20195;-63
2024/03/07 11:42:47;;;;;;;3.97;3.67;;;12.00;99.90;;;;;;5080585;28;20305;-63
2024/03/07 11:45:24;;;;;;;4.60;3.93;;;11.70;99.90;;;;;;5077361;28;20670;-63
2024/03/07 11:47:59;;;;;;;2.73;2.53;;;11.40;99.90;;;;;;5091113;28;20198;-63
2024/03/07 11:50:26;;;;;;;2.80;2.60;;;11.20;99.90;;;;;;5080006;28;21373;-62
2024/03/07 11:52:54;;;;;;;2.90;2.70;;;10.70;99.90;;;;;;5079808;28;20279;-63
2024/03/07 11:55:22;;;;;;;6.90;3.40;;;10.60;99.90;;;;;;5079594;28;20619;-63
2024/03/07 11:57:50;;;;;;;5.10;3.57;;;10.20;99.90;;;;;;5074576;28;20198;-69
2024/03/07 12:00:19;;;;;;;3.60;3.30;;;10.00;99.90;;;;;;5081523;28;20203;-70
2024/03/07 12:02:48;;;;;;;4.13;3.27;;;10.20;99.90;;;;;;5079611;28;20248;-70
2024/03/07 12:05:17;;;;;;;3.43;3.13;;;9.90;99.90;;;;;;5089163;28;20203;-69
2024/03/07 12:07:44;;;;;;;5.93;4.13;;;10.10;99.90;;;;;;5081754;28;20250;-68
2024/03/07 12:10:12;;;;;;;3.53;3.30;;;9.90;99.90;;;;;;5077892;28;20215;-67
2024/03/07 12:12:39;;;;;;;5.07;3.97;;;11.00;99.90;;;;;;5077027;28;20219;-66
2024/03/07 12:15:14;;;;;;;3.13;2.93;;;11.00;99.90;;;;;;5084071;28;20302;-66
2024/03/07 12:17:46;;;;;;;3.43;2.90;;;11.00;99.90;;;;;;5079082;28;20202;-66
2024/03/07 12:20:27;;;;;;;4.83;3.13;;;10.90;99.90;;;;;;5079800;28;20200;-66
2024/03/07 12:23:00;;;;;;;3.97;3.43;;;10.50;99.90;;;;;;5075850;28;20254;-66
2024/03/07 12:25:27;;;;;;;4.20;3.40;;;10.20;99.90;;;;;;5077055;28;20214;-70
2024/03/07 12:28:05;;;;;;;3.00;2.80;;;10.20;99.90;;;;;;5075582;28;20193;-68
2024/03/07 12:30:33;;;;;;;3.30;2.63;;;10.10;99.90;;;;;;5076678;28;20226;-69
2024/03/07 12:33:02;;;;;;;4.40;3.67;;;10.00;99.90;;;;;;5078459;28;20226;-69
2024/03/07 12:35:29;;;;;;;3.73;3.43;;;10.20;99.90;;;;;;5077703;28;20305;-70
2024/03/07 12:37:58;;;;;;;4.00;3.63;;;10.10;99.90;;;;;;5078598;28;20210;-69
2024/03/07 12:40:29;;;;;;;3.57;3.27;;;10.00;99.90;;;;;;5090792;28;20242;-66
2024/03/07 12:42:57;;;;;;;4.03;3.30;;;9.80;99.90;;;;;;5080175;28;20226;-60
2024/03/07 12:45:24;;;;;;;4.07;3.67;;;9.60;99.90;;;;;;5076445;28;20229;-68
2024/03/07 12:47:54;;;;;;;3.70;3.50;;;9.60;99.90;;;;;;5077562;28;20660;-66
2024/03/07 12:50:22;;;;;;;3.23;2.93;;;9.60;99.90;;;;;;5079419;28;20222;-66
2024/03/07 12:52:50;;;;;;;3.57;3.27;;;9.70;99.90;;;;;;5078003;28;20246;-66
2024/03/07 12:55:21;;;;;;;4.33;3.83;;;9.90;99.90;;;;;;5080566;28;20297;-65
2024/03/07 12:57:49;;;;;;;4.23;3.77;;;10.00;99.90;;;;;;5084821;28;20244;-65
2024/03/07 13:00:20;;;;;;;4.63;3.67;;;10.10;99.90;;;;;;5082490;28;20547;-64
2024/03/07 13:02:50;;;;;;;3.77;3.30;;;9.80;99.90;;;;;;5078693;28;20307;-62
2024/03/07 13:05:21;;;;;;;6.17;4.30;;;10.00;99.90;;;;;;5082889;28;20202;-63
2024/03/07 13:07:49;;;;;;;5.93;4.60;;;10.20;99.90;;;;;;5084911;28;20751;-67
2024/03/07 13:10:19;;;;;;;14.03;8.47;;;10.30;99.90;;;;;;5080208;28;20228;-63
2024/03/07 13:12:48;;;;;;;7.60;4.43;;;10.30;99.90;;;;;;5075907;28;20219;-61